createdAt,value
2018-06-24T00:00:06.163Z,14.53
2018-06-24T00:02:34.544Z,14.52
2018-06-24T00:05:03.959Z,14.50
2018-06-24T00:07:32.362Z,14.47
2018-06-24T00:10:00.787Z,14.47
2018-06-24T00:12:29.166Z,14.47
2018-06-24T00:14:57.547Z,14.47
2018-06-24T00:17:25.944Z,14.46
2018-06-24T00:19:54.326Z,14.46
2018-06-24T00:22:22.730Z,14.44
2018-06-24T00:24:51.870Z,14.44
2018-06-24T00:27:20.398Z,14.42
2018-06-24T00:29:48.774Z,14.43
2018-06-24T00:32:17.176Z,14.45
2018-06-24T00:34:45.562Z,14.45
2018-06-24T00:37:13.968Z,14.47
2018-06-24T00:39:42.351Z,14.48
2018-06-24T00:42:10.890Z,14.48
2018-06-24T00:44:39.282Z,14.49
2018-06-24T00:47:07.686Z,14.51
2018-06-24T00:49:36.063Z,14.54
2018-06-24T00:52:04.466Z,14.55
2018-06-24T00:54:32.845Z,14.56
2018-06-24T00:57:01.330Z,14.57
2018-06-24T00:59:40.970Z,14.59
2018-06-24T01:02:09.378Z,14.58
2018-06-24T01:04:37.809Z,14.59
2018-06-24T01:07:06.214Z,14.61
2018-06-24T01:09:34.670Z,14.61
2018-06-24T01:12:03.200Z,14.62
2018-06-24T01:14:31.565Z,14.61
2018-06-24T01:16:59.953Z,14.59
2018-06-24T01:19:28.323Z,14.58
2018-06-24T01:21:56.719Z,14.60
2018-06-24T01:24:25.229Z,14.58
2018-06-24T01:29:30.425Z,14.58
2018-06-24T01:31:58.818Z,14.57
2018-06-24T01:34:27.187Z,14.57
2018-06-24T01:36:55.654Z,14.59
2018-06-24T01:39:24.026Z,14.58
2018-06-24T01:41:52.391Z,14.57
2018-06-24T01:44:20.818Z,14.57
2018-06-24T01:46:49.202Z,14.59
2018-06-24T01:49:17.590Z,14.58
2018-06-24T01:51:46.034Z,14.57
2018-06-24T01:54:18.122Z,14.57
2018-06-24T01:56:46.481Z,14.55
2018-06-24T01:59:14.873Z,14.53
2018-06-24T02:01:43.238Z,14.49
2018-06-24T02:04:11.622Z,14.45
2018-06-24T02:06:39.985Z,14.39
2018-06-24T02:09:11.370Z,14.34
2018-06-24T02:11:39.924Z,14.28
2018-06-24T02:14:08.315Z,14.22
2018-06-24T02:16:37.399Z,14.18
2018-06-24T02:19:06.313Z,14.15
2018-06-24T02:21:34.681Z,14.12
2018-06-24T02:24:03.086Z,14.13
2018-06-24T02:26:31.466Z,14.13
2018-06-24T02:28:59.886Z,14.12
2018-06-24T02:31:28.262Z,14.12
2018-06-24T02:33:56.835Z,14.11
2018-06-24T02:36:25.215Z,14.10
2018-06-24T02:38:53.618Z,14.08
2018-06-24T02:41:21.986Z,14.08
2018-06-24T02:43:50.382Z,14.08
2018-06-24T02:46:18.745Z,14.08
2018-06-24T02:48:47.182Z,14.08
2018-06-24T02:51:15.577Z,14.08
2018-06-24T02:53:44.013Z,14.07
2018-06-24T02:56:12.366Z,14.09
2018-06-24T02:58:40.774Z,14.08
2018-06-24T03:01:09.274Z,14.10
2018-06-24T03:03:37.645Z,14.10
2018-06-24T03:06:06.187Z,14.12
2018-06-24T03:08:34.431Z,14.14
2018-06-24T03:11:02.859Z,14.14
2018-06-24T03:13:31.236Z,14.15
2018-06-24T03:15:59.618Z,14.16
2018-06-24T03:18:28.058Z,14.16
2018-06-24T03:20:56.458Z,14.21
2018-06-24T03:23:24.837Z,14.24
2018-06-24T03:25:53.272Z,14.25
2018-06-24T03:28:21.642Z,14.29
2018-06-24T03:30:50.031Z,14.30
2018-06-24T03:33:18.471Z,14.31
2018-06-24T03:35:47.097Z,14.33
2018-06-24T03:38:15.458Z,14.36
2018-06-24T03:40:43.837Z,14.38
2018-06-24T03:43:12.213Z,14.40
2018-06-24T03:45:40.612Z,14.42
2018-06-24T03:48:08.977Z,14.42
2018-06-24T03:50:37.361Z,14.40
2018-06-24T03:53:06.073Z,14.40
2018-06-24T03:55:34.553Z,14.41
2018-06-24T03:58:03.104Z,14.42
2018-06-24T04:00:46.606Z,14.42
2018-06-24T04:03:14.971Z,14.43
2018-06-24T04:05:43.430Z,14.45
2018-06-24T04:08:11.849Z,14.45
2018-06-24T04:10:40.274Z,14.46
2018-06-24T04:13:08.650Z,14.46
2018-06-24T04:15:37.037Z,14.47
2018-06-24T04:18:05.630Z,14.48
2018-06-24T04:20:34.106Z,14.49
2018-06-24T04:23:02.482Z,14.48
2018-06-24T04:25:30.874Z,14.49
2018-06-24T04:27:59.270Z,14.52
2018-06-24T04:30:27.757Z,14.55
2018-06-24T04:32:56.154Z,14.58
2018-06-24T04:35:24.526Z,14.61
2018-06-24T04:37:52.929Z,14.63
2018-06-24T04:40:21.291Z,14.67
2018-06-24T04:42:49.674Z,14.68
2018-06-24T04:45:18.042Z,14.72
2018-06-24T04:47:46.502Z,14.74
2018-06-24T04:50:14.843Z,14.74
2018-06-24T04:52:43.262Z,14.75
2018-06-24T04:55:11.632Z,14.76
2018-06-24T04:57:40.027Z,14.79
2018-06-24T05:00:08.406Z,14.82
2018-06-24T05:02:36.798Z,14.83
2018-06-24T05:05:05.371Z,14.84
2018-06-24T05:07:33.763Z,14.86
2018-06-24T05:10:03.585Z,14.87
2018-06-24T05:12:31.992Z,14.89
2018-06-24T05:15:00.366Z,14.95
2018-06-24T05:17:28.758Z,14.99
2018-06-24T05:19:57.119Z,15.03
2018-06-24T05:22:25.515Z,15.07
2018-06-24T05:24:53.878Z,15.08
2018-06-24T05:27:22.269Z,15.08
2018-06-24T05:29:50.644Z,15.15
2018-06-24T05:32:19.041Z,15.22
2018-06-24T05:34:47.513Z,15.36
2018-06-24T05:37:15.910Z,15.44
2018-06-24T05:39:44.357Z,15.54
2018-06-24T05:42:13.148Z,15.62
2018-06-24T05:44:43.349Z,15.53
2018-06-24T05:47:11.742Z,15.70
2018-06-24T05:49:40.119Z,15.72
2018-06-24T05:52:08.516Z,15.78
2018-06-24T05:54:36.878Z,15.84
2018-06-24T05:57:05.285Z,15.90
2018-06-24T05:59:33.662Z,15.94
2018-06-24T06:02:02.038Z,15.99
2018-06-24T06:04:30.505Z,16.04
2018-06-24T06:06:59.002Z,16.07
2018-06-24T06:09:27.396Z,16.05
2018-06-24T06:11:55.787Z,16.02
2018-06-24T06:14:24.173Z,16.04
2018-06-24T06:16:52.579Z,16.07
2018-06-24T06:19:20.991Z,16.12
2018-06-24T06:21:49.512Z,16.15
2018-06-24T06:24:38.781Z,16.18
2018-06-24T06:27:07.150Z,16.21
2018-06-24T06:29:35.641Z,16.23
2018-06-24T06:32:04.017Z,16.25
2018-06-24T06:34:32.409Z,16.25
2018-06-24T06:37:01.862Z,16.24
2018-06-24T06:39:35.217Z,16.20
2018-06-24T06:42:03.959Z,16.14
2018-06-24T06:44:32.350Z,16.10
2018-06-24T06:47:00.720Z,16.07
2018-06-24T06:49:29.142Z,16.09
2018-06-24T06:51:57.517Z,16.11
2018-06-24T06:54:41.689Z,16.12
2018-06-24T06:57:10.418Z,16.11
2018-06-24T06:59:39.743Z,16.15
2018-06-24T07:02:08.118Z,16.20
2018-06-24T07:04:36.530Z,16.26
2018-06-24T07:07:04.953Z,16.35
2018-06-24T07:09:33.337Z,16.37
2018-06-24T07:12:01.735Z,16.45
2018-06-24T07:14:30.203Z,16.52
2018-06-24T07:16:58.574Z,16.58
2018-06-24T07:19:26.973Z,16.65
2018-06-24T07:21:55.346Z,16.77
2018-06-24T07:24:59.210Z,16.88
2018-06-24T07:27:27.582Z,17.02
2018-06-24T07:29:55.973Z,17.11
2018-06-24T07:32:24.457Z,17.14
2018-06-24T07:34:52.858Z,17.16
2018-06-24T07:37:21.226Z,17.19
2018-06-24T07:39:49.850Z,17.23
2018-06-24T07:42:54.766Z,17.20
2018-06-24T07:45:23.182Z,17.20
2018-06-24T07:47:51.557Z,17.22
2018-06-24T07:50:20.051Z,17.24
2018-06-24T07:52:48.345Z,17.21
2018-06-24T07:55:16.735Z,17.19
2018-06-24T07:57:45.102Z,17.16
2018-06-24T08:00:13.502Z,17.15
2018-06-24T08:02:41.874Z,17.17
2018-06-24T08:05:10.287Z,17.16
2018-06-24T08:07:38.649Z,17.15
2018-06-24T08:10:07.066Z,17.12
2018-06-24T08:12:39.101Z,17.09
2018-06-24T08:15:07.502Z,17.11
2018-06-24T08:17:35.878Z,17.14
2018-06-24T08:20:04.298Z,17.20
2018-06-24T08:22:32.766Z,17.27
2018-06-24T08:25:01.143Z,17.35
2018-06-24T08:27:29.572Z,17.41
2018-06-24T08:29:57.937Z,17.51
2018-06-24T08:32:26.329Z,17.57
2018-06-24T08:34:54.694Z,17.57
2018-06-24T08:37:23.079Z,17.59
2018-06-24T08:39:51.478Z,17.59
2018-06-24T08:42:44.990Z,17.61
2018-06-24T08:45:17.210Z,17.62
2018-06-24T08:47:45.602Z,17.70
2018-06-24T08:50:13.979Z,17.78
2018-06-24T08:52:42.379Z,17.83
2018-06-24T08:55:10.813Z,17.94
2018-06-24T08:57:39.341Z,18.03
2018-06-24T09:00:08.110Z,18.12
2018-06-24T09:02:36.526Z,18.22
2018-06-24T09:05:04.973Z,18.31
2018-06-24T09:07:33.390Z,18.44
2018-06-24T09:10:01.777Z,18.60
2018-06-24T09:12:38.221Z,18.76
2018-06-24T09:15:06.586Z,18.88
2018-06-24T09:17:35.042Z,18.96
2018-06-24T09:20:03.810Z,19.03
2018-06-24T09:22:32.209Z,19.08
2018-06-24T09:25:00.598Z,19.12
2018-06-24T09:27:29.069Z,19.16
2018-06-24T09:29:57.509Z,19.13
2018-06-24T09:32:25.906Z,19.07
2018-06-24T09:34:54.273Z,18.94
2018-06-24T09:37:22.663Z,18.84
2018-06-24T09:39:51.040Z,18.75
2018-06-24T09:42:19.427Z,18.67
2018-06-24T09:44:47.786Z,18.58
2018-06-24T09:47:16.182Z,18.57
2018-06-24T09:49:44.549Z,18.62
2018-06-24T09:52:12.941Z,18.63
2018-06-24T09:54:41.321Z,18.67
2018-06-24T09:57:09.730Z,18.72
2018-06-24T09:59:38.100Z,18.80
2018-06-24T10:02:06.722Z,18.89
2018-06-24T10:04:35.209Z,19.02
2018-06-24T10:07:03.569Z,19.12
2018-06-24T10:09:31.954Z,19.17
2018-06-24T10:12:00.342Z,19.23
2018-06-24T10:14:28.730Z,19.33
2018-06-24T10:16:57.093Z,19.46
2018-06-24T10:19:25.496Z,19.59
2018-06-24T10:21:53.909Z,19.67
2018-06-24T10:24:22.314Z,19.83
2018-06-24T10:26:50.677Z,19.99
2018-06-24T10:29:19.080Z,20.13
2018-06-24T10:31:47.454Z,20.21
2018-06-24T10:34:15.839Z,20.26
2018-06-24T10:36:44.204Z,20.31
2018-06-24T10:39:12.935Z,20.32
2018-06-24T10:41:41.302Z,20.33
2018-06-24T10:44:09.689Z,20.26
2018-06-24T10:46:38.078Z,20.22
2018-06-24T10:49:06.474Z,20.17
2018-06-24T10:51:34.842Z,20.12
2018-06-24T10:54:03.237Z,20.05
2018-06-24T10:56:31.610Z,20.00
2018-06-24T10:59:00.034Z,20.00
2018-06-24T11:01:28.397Z,20.06
2018-06-24T11:03:56.793Z,20.15
2018-06-24T11:06:25.152Z,20.25
2018-06-24T11:08:53.544Z,20.38
2018-06-24T11:11:22.042Z,20.47
2018-06-24T11:13:50.438Z,20.53
2018-06-24T11:16:18.900Z,20.57
2018-06-24T11:18:47.303Z,20.66
2018-06-24T11:21:15.670Z,20.73
2018-06-24T11:23:44.120Z,20.76
2018-06-24T11:26:12.516Z,20.79
2018-06-24T11:28:40.873Z,20.85
2018-06-24T11:31:09.600Z,20.96
2018-06-24T11:33:37.902Z,21.12
2018-06-24T11:36:06.385Z,21.26
2018-06-24T11:38:34.758Z,21.31
2018-06-24T11:41:03.197Z,21.26
2018-06-24T11:43:31.562Z,21.19
2018-06-24T11:46:00.094Z,21.08
2018-06-24T11:48:28.468Z,21.02
2018-06-24T11:50:56.858Z,21.02
2018-06-24T11:53:25.246Z,21.00
2018-06-24T11:55:53.921Z,20.87
2018-06-24T11:58:22.291Z,20.70
2018-06-24T12:00:50.699Z,20.53
2018-06-24T12:03:19.069Z,20.35
2018-06-24T12:05:47.742Z,20.15
2018-06-24T12:08:16.133Z,20.05
2018-06-24T12:10:44.593Z,20.03
2018-06-24T12:13:12.950Z,20.03
2018-06-24T12:15:41.330Z,20.06
2018-06-24T12:18:09.712Z,20.08
2018-06-24T12:20:38.134Z,20.13
2018-06-24T12:23:06.501Z,20.19
2018-06-24T12:25:34.950Z,20.20
2018-06-24T12:28:03.325Z,20.17
2018-06-24T12:30:31.710Z,20.12
2018-06-24T12:33:00.106Z,20.02
2018-06-24T12:35:28.486Z,19.96
2018-06-24T12:37:56.861Z,19.91
2018-06-24T12:40:31.373Z,19.79
2018-06-24T12:43:00.807Z,19.58
2018-06-24T12:45:29.229Z,19.32
2018-06-24T12:47:57.631Z,19.07
2018-06-24T12:50:25.993Z,18.92
2018-06-24T12:52:54.445Z,18.86
2018-06-24T12:55:22.768Z,18.84
2018-06-24T12:57:51.158Z,18.86
2018-06-24T13:00:20.070Z,18.93
2018-06-24T13:02:47.937Z,19.08
2018-06-24T13:05:16.302Z,19.22
2018-06-24T13:07:44.909Z,19.42
2018-06-24T13:10:13.310Z,19.67
2018-06-24T13:12:41.705Z,19.88
2018-06-24T13:15:10.082Z,20.02
2018-06-24T13:17:38.471Z,20.08
2018-06-24T13:20:06.863Z,20.06
2018-06-24T13:22:35.255Z,20.00
2018-06-24T13:25:03.637Z,19.94
2018-06-24T13:27:32.037Z,19.83
2018-06-24T13:30:00.413Z,19.74
2018-06-24T13:32:28.813Z,19.68
2018-06-24T13:34:57.184Z,19.68
2018-06-24T13:37:25.600Z,19.70
2018-06-24T13:39:53.974Z,19.78
2018-06-24T13:42:22.440Z,19.84
2018-06-24T13:44:50.768Z,19.89
2018-06-24T13:47:19.157Z,19.95
2018-06-24T13:49:47.542Z,20.04
2018-06-24T13:52:15.953Z,20.10
2018-06-24T13:54:44.371Z,20.17
2018-06-24T13:57:12.758Z,20.25
2018-06-24T13:59:41.126Z,20.31
2018-06-24T14:02:09.554Z,20.28
2018-06-24T14:04:37.935Z,20.23
2018-06-24T14:07:06.318Z,20.20
2018-06-24T14:09:34.717Z,20.21
2018-06-24T14:12:03.110Z,20.23
2018-06-24T14:14:31.498Z,20.31
2018-06-24T14:16:59.876Z,20.41
2018-06-24T14:19:28.267Z,20.48
2018-06-24T14:21:56.649Z,20.57
2018-06-24T14:24:25.366Z,20.66
2018-06-24T14:26:53.854Z,20.74
2018-06-24T14:29:22.250Z,20.74
2018-06-24T14:31:50.621Z,20.66
2018-06-24T14:34:19.002Z,20.55
2018-06-24T14:36:47.445Z,20.41
2018-06-24T14:39:16.093Z,20.24
2018-06-24T14:41:44.462Z,20.08
2018-06-24T14:44:12.867Z,19.96
2018-06-24T14:46:41.250Z,19.85
2018-06-24T14:49:09.637Z,19.74
2018-06-24T14:51:38.007Z,19.65
2018-06-24T14:54:06.400Z,19.59
2018-06-24T14:56:34.774Z,19.52
2018-06-24T14:59:03.179Z,19.45
2018-06-24T15:01:31.815Z,19.40
2018-06-24T15:04:00.137Z,19.34
2018-06-24T15:06:28.612Z,19.27
2018-06-24T15:08:57.001Z,19.21
2018-06-24T15:11:25.438Z,19.17
2018-06-24T15:13:54.226Z,19.11
2018-06-24T15:16:22.585Z,19.04
2018-06-24T15:18:50.977Z,19.00
2018-06-24T15:21:19.347Z,19.00
2018-06-24T15:23:47.734Z,19.04
2018-06-24T15:26:16.507Z,19.11
2018-06-24T15:28:44.919Z,19.19
2018-06-24T15:31:13.294Z,19.25
2018-06-24T15:33:41.679Z,19.28
2018-06-24T15:36:10.314Z,19.30
2018-06-24T15:38:38.677Z,19.31
2018-06-24T15:41:07.077Z,19.32
2018-06-24T15:43:35.438Z,19.36
2018-06-24T15:46:03.834Z,19.41
2018-06-24T15:48:32.198Z,19.49
2018-06-24T15:51:00.582Z,19.56
2018-06-24T15:53:28.942Z,19.60
2018-06-24T15:55:57.350Z,19.68
2018-06-24T15:58:25.709Z,19.75
2018-06-24T16:00:54.099Z,19.82
2018-06-24T16:03:22.474Z,19.87
2018-06-24T16:05:50.862Z,19.87
2018-06-24T16:08:19.233Z,19.84
2018-06-24T16:10:47.702Z,19.84
2018-06-24T16:13:16.066Z,19.85
2018-06-24T16:15:44.462Z,19.85
2018-06-24T16:18:12.842Z,19.87
2018-06-24T16:20:41.278Z,19.87
2018-06-24T16:23:09.633Z,19.87
2018-06-24T16:25:38.026Z,19.82
2018-06-24T16:28:06.985Z,19.80
2018-06-24T16:30:35.422Z,19.78
2018-06-24T16:33:03.790Z,19.75
2018-06-24T16:35:32.348Z,19.72
2018-06-24T16:38:00.719Z,19.66
2018-06-24T16:40:29.118Z,19.62
2018-06-24T16:42:57.490Z,19.60
2018-06-24T16:45:25.912Z,19.59
2018-06-24T16:47:54.442Z,19.57
2018-06-24T16:50:22.801Z,19.52
2018-06-24T16:52:51.276Z,19.44
2018-06-24T16:55:19.637Z,19.38
2018-06-24T16:57:48.021Z,19.29
2018-06-24T17:00:16.397Z,19.19
2018-06-24T17:02:44.829Z,19.11
2018-06-24T17:05:13.191Z,19.02
2018-06-24T17:07:41.579Z,18.94
2018-06-24T17:10:09.944Z,18.86
2018-06-24T17:12:38.434Z,18.74
2018-06-24T17:15:06.799Z,18.69
2018-06-24T17:17:35.187Z,18.64
2018-06-24T17:20:03.578Z,18.61
2018-06-24T17:22:31.965Z,18.61
2018-06-24T17:25:00.411Z,18.61
2018-06-24T17:27:28.793Z,18.61
2018-06-24T17:29:57.153Z,18.62
2018-06-24T17:32:25.554Z,18.61
2018-06-24T17:34:53.926Z,18.61
2018-06-24T17:37:22.310Z,18.60
2018-06-24T17:39:50.682Z,18.59
2018-06-24T17:42:19.077Z,18.56
2018-06-24T17:44:47.434Z,18.51
2018-06-24T17:47:15.834Z,18.49
2018-06-24T17:49:44.212Z,18.44
2018-06-24T17:52:12.601Z,18.37
2018-06-24T17:54:40.969Z,18.30
2018-06-24T17:57:09.361Z,18.25
2018-06-24T17:59:37.733Z,18.22
2018-06-24T18:02:06.137Z,18.16
2018-06-24T18:04:34.582Z,18.11
2018-06-24T18:07:02.946Z,18.09
2018-06-24T18:09:31.342Z,18.05
2018-06-24T18:11:59.741Z,18.01
2018-06-24T18:14:28.145Z,17.98
2018-06-24T18:16:56.519Z,17.95
2018-06-24T18:19:24.944Z,17.92
2018-06-24T18:21:53.309Z,17.90
2018-06-24T18:24:21.723Z,17.88
2018-06-24T18:26:50.199Z,17.85
2018-06-24T18:29:18.642Z,17.81
2018-06-24T18:31:47.011Z,17.78
2018-06-24T18:34:15.426Z,17.74
2018-06-24T18:36:43.934Z,17.70
2018-06-24T18:39:12.325Z,17.68
2018-06-24T18:41:40.737Z,17.68
2018-06-24T18:44:09.103Z,17.69
2018-06-24T18:46:37.650Z,17.68
2018-06-24T18:49:06.052Z,17.67
2018-06-24T18:51:34.451Z,17.64
2018-06-24T18:54:02.849Z,17.62
2018-06-24T18:56:31.266Z,17.60
2018-06-24T18:58:59.658Z,17.59
2018-06-24T19:01:28.014Z,17.56
2018-06-24T19:03:56.402Z,17.51
2018-06-24T19:06:24.765Z,17.44
2018-06-24T19:08:53.159Z,17.35
2018-06-24T19:11:21.608Z,17.23
2018-06-24T19:13:50.061Z,17.14
2018-06-24T19:16:18.422Z,17.02
2018-06-24T19:18:46.831Z,16.91
2018-06-24T19:21:15.369Z,16.82
2018-06-24T19:23:43.755Z,16.74
2018-06-24T19:26:12.134Z,16.64
2018-06-24T19:28:40.499Z,16.55
2018-06-24T19:31:08.886Z,16.48
2018-06-24T19:33:37.257Z,16.40
2018-06-24T19:36:05.642Z,16.35
2018-06-24T19:38:34.015Z,16.30
2018-06-24T19:41:02.402Z,16.27
2018-06-24T19:43:30.765Z,16.24
2018-06-24T19:45:59.170Z,16.23
2018-06-24T19:48:27.713Z,16.22
2018-06-24T19:50:56.095Z,16.23
2018-06-24T19:53:24.470Z,16.25
2018-06-24T19:55:52.853Z,16.27
2018-06-24T19:58:21.221Z,16.27
2018-06-24T20:00:49.682Z,16.27
2018-06-24T20:03:18.114Z,16.26
2018-06-24T20:05:46.466Z,16.26
2018-06-24T20:08:14.828Z,16.26
2018-06-24T20:10:43.241Z,16.27
2018-06-24T20:13:11.674Z,16.27
2018-06-24T20:15:40.059Z,16.28
2018-06-24T20:18:08.428Z,16.28
2018-06-24T20:20:36.873Z,16.26
2018-06-24T20:23:05.405Z,16.26
2018-06-24T20:25:33.797Z,16.27
2018-06-24T20:28:02.182Z,16.26
2018-06-24T20:30:30.591Z,16.27
2018-06-24T20:32:58.954Z,16.26
2018-06-24T20:35:27.366Z,16.23
2018-06-24T20:37:55.727Z,16.18
2018-06-24T20:40:24.089Z,16.16
2018-06-24T20:42:52.487Z,16.14
2018-06-24T20:45:20.874Z,16.13
2018-06-24T20:47:49.693Z,16.11
2018-06-24T20:50:18.105Z,16.07
2018-06-24T20:52:46.466Z,16.04
2018-06-24T20:55:14.835Z,15.99
2018-06-24T20:57:43.221Z,15.94
2018-06-24T21:00:11.599Z,15.88
2018-06-24T21:02:40.007Z,15.80
2018-06-24T21:05:08.401Z,15.73
2018-06-24T21:07:36.795Z,15.67
2018-06-24T21:10:05.193Z,15.60
2018-06-24T21:12:33.602Z,15.50
2018-06-24T21:15:02.151Z,15.42
2018-06-24T21:17:30.757Z,15.34
2018-06-24T21:19:59.165Z,15.27
2018-06-24T21:22:27.550Z,15.20
2018-06-24T21:24:55.913Z,15.16
2018-06-24T21:27:24.311Z,15.10
2018-06-24T21:29:52.679Z,15.04
2018-06-24T21:32:21.068Z,15.00
2018-06-24T21:34:49.442Z,14.94
2018-06-24T21:37:17.825Z,14.87
2018-06-24T21:39:46.185Z,14.83
2018-06-24T21:42:14.577Z,14.77
2018-06-24T21:44:42.939Z,14.73
2018-06-24T21:47:12.095Z,14.67
2018-06-24T21:49:40.464Z,14.65
2018-06-24T21:52:08.853Z,14.62
2018-06-24T21:54:37.221Z,14.57
2018-06-24T21:57:05.625Z,14.54
2018-06-24T21:59:33.989Z,14.50
2018-06-24T22:02:03.946Z,14.45
2018-06-24T22:04:32.333Z,14.42
2018-06-24T22:07:00.709Z,14.38
2018-06-24T22:09:29.106Z,14.35
2018-06-24T22:11:57.516Z,14.32
2018-06-24T22:14:25.905Z,14.27
2018-06-24T22:16:54.279Z,14.22
2018-06-24T22:19:22.674Z,14.20
2018-06-24T22:21:51.049Z,14.17
2018-06-24T22:24:19.441Z,14.14
2018-06-24T22:26:47.931Z,14.11
2018-06-24T22:29:16.326Z,14.07
2018-06-24T22:31:44.699Z,14.04
2018-06-24T22:34:13.106Z,14.00
2018-06-24T22:36:41.478Z,13.97
2018-06-24T22:39:11.167Z,13.94
2018-06-24T22:41:39.538Z,13.90
2018-06-24T22:44:07.934Z,13.88
2018-06-24T22:46:36.329Z,13.85
2018-06-24T22:49:04.994Z,13.81
2018-06-24T22:51:33.395Z,13.79
2018-06-24T22:54:01.782Z,13.78
2018-06-24T22:56:30.154Z,13.74
2018-06-24T22:59:10.633Z,13.72
2018-06-24T23:01:39.007Z,13.71
2018-06-24T23:04:07.418Z,13.68
2018-06-24T23:06:35.794Z,13.67
2018-06-24T23:09:06.018Z,13.64
2018-06-24T23:11:34.425Z,13.63
2018-06-24T23:14:02.814Z,13.60
2018-06-24T23:16:31.173Z,13.56
2018-06-24T23:18:59.557Z,13.54
2018-06-24T23:21:27.957Z,13.50
2018-06-24T23:23:56.369Z,13.46
2018-06-24T23:26:24.734Z,13.44
2018-06-24T23:28:53.146Z,13.40
2018-06-24T23:31:21.506Z,13.37
2018-06-24T23:33:49.874Z,13.35
2018-06-24T23:36:18.265Z,13.34
2018-06-24T23:38:46.634Z,13.33
2018-06-24T23:41:15.026Z,13.31
2018-06-24T23:43:43.385Z,13.29
2018-06-24T23:46:11.809Z,13.28
2018-06-24T23:48:40.174Z,13.28
2018-06-24T23:51:08.567Z,13.27
2018-06-24T23:53:36.937Z,13.26
2018-06-24T23:56:05.493Z,13.25
2018-06-24T23:58:33.857Z,13.24
